Dorothy Ann — WDE8761 — position and weather

sailwx.info

Track history (hours):
 
Tides and Currents Weather Stations Pressure Air Temp Water Temp Dewpoint Dewpoint Depression Visibility Wind Speed Wind Dir Waves Ship Positions

Dorothy Ann

Owner: THE INTERLAKE STEAMSHIP COMPANY, Middleburg Heights, OH. More information available from US FCC via Universal Licensing System and Coast Guard Vessel Documentation Center.

Last reported at 2017-Jun-26 23:00 UTC. Time now 2017-Jun-27 00:06 UTC.
Position N 45°54' W 084°06'.

Length 215 m; draft 5.8 m.

Type: Cargo ship. MMSI: 367409260.

Wind from 320 at 14 knots

Barometer 1013.3 mb
Air temperature 12.3 ° C
Water temperature 18.0 ° C

Date/timePositionNaut miles runAvg speedWind from/ knotsBaromVisibWave heightAir tempDewpointWater temp
2017-Jun-26 23:00N 45°54' W 084°06'2 8.2 320 / 141013.3 12.3 18.0
2017-Jun-26 22:45N 45°52' W 084°07'5 7.1
2017-Jun-26 22:03N 45°55' W 084°13'122.7
2017-Jun-26 22:00N 45°54' W 084°12'2366.5 330 / 141013.7 12.1 16.8
2017-Jun-26 21:59N 45°56' W 084°13'6 5.7
2017-Jun-26 21:00N 46°00' W 084°18'0 0.0 280 / 71014.0 14.0 13.7
2017-Jun-26 20:00N 46°00' W 084°18'0 0.0 310 / 61014.0 12.1 13.8
2017-Jun-26 19:00N 46°00' W 084°18'1 2.8 310 / 71013.7 12.9 13.8
2017-Jun-26 18:30N 45°59' W 084°17'1 2.8
2017-Jun-26 18:00N 46°00' W 084°18'2 5.8 340 / 51013.7 12.6 13.5
2017-Jun-26 17:41N 45°59' W 084°16'1 5.9
2017-Jun-26 17:30N 45°58' W 084°15'5 9.0
2017-Jun-26 17:00N 45°54' W 084°12'121.1 030 / 111013.7 12.4 17.7
2017-Jun-26 16:56N 45°54' W 084°10'5 9.7
2017-Jun-26 16:24N 45°50' W 084°05'410.0
2017-Jun-26 16:00N 45°48' W 084°00'6 9.6 010 / 41013.7 12.5 18.5
2017-Jun-26 15:21N 45°43' W 083°54'3 9.3
2017-Jun-26 15:01N 45°41' W 083°51'2134.4
2017-Jun-26 15:00N 45°42' W 083°54'714.2 300 / 161013.3 13.0 17.4
2017-Jun-26 14:30N 45°38' W 083°46'3 6.6
2017-Jun-26 14:00N 45°36' W 083°42'612.8 260 / 111013.3 13.2 17.2
2017-Jun-26 13:31N 45°31' W 083°36'5 9.8
2017-Jun-26 13:00N 45°28' W 083°31'2163.8
2017-Jun-26 13:00N 45°30' W 083°30'612.3 250 / 51014.0 13.5 17.5
2017-Jun-26 12:30N 45°25' W 083°26'1 2.9
2017-Jun-26 12:00N 45°24' W 083°24'1514.7 180 / 21014.0 13.2 17.9
2017-Jun-26 11:00N 45°12' W 083°12'7 7.3 210 / 31014.3 13.4 17.1
2017-Jun-26 10:00N 45°06' W 083°06'1312.7 240 / 81014.0 13.6 17.6
2017-Jun-26 09:00N 44°54' W 083°00'6 6.0 270 / 91014.0 13.6 18.3
2017-Jun-26 08:00N 44°48' W 083°00'1312.7 240 / 81014.3 13.9 18.2
2017-Jun-26 07:00N 44°36' W 082°54'7 7.4 240 / 61014.7 14.1 18.8
2017-Jun-26 06:00N 44°30' W 082°48'19 9.3 350 / 51015.4 13.7 18.8
2017-Jun-26 04:00N 44°12' W 082°42'1312.8 310 / 91015.7 14.5 19.5
2017-Jun-26 03:00N 44°00' W 082°36'7 7.4 350 / 131016.0 15.2 20.6
2017-Jun-26 02:00N 43°54' W 082°30'1212.0 260 / 161015.4 16.6 20.0
2017-Jun-26 01:00N 43°42' W 082°30'1212.0 260 / 131015.7 16.8 19.5
2017-Jun-26 00:00N 43°30' W 082°30'6 6.0 260 / 151015.7 16.5 18.9
2017-Jun-25 23:00N 43°24' W 082°30'1312.8 270 / 181015.7 17.8 18.2
2017-Jun-25 22:00N 43°12' W 082°24'6 6.0 270 / 211015.7 18.9 20.9
2017-Jun-25 21:00N 43°06' W 082°24'6 6.0 290 / 121016.0 18.3 20.9
2017-Jun-25 20:00N 43°00' W 082°24'7 7.4 250 / 101016.7 18.1 20.9
2017-Jun-25 19:00N 42°54' W 082°30'1212.0 310 / 121016.4 18.9 20.9
2017-Jun-25 18:00N 42°42' W 082°30'6 6.0 260 / 151016.4 19.2 20.8
2017-Jun-25 17:00N 42°36' W 082°30'7 7.5 300 / 121017.1 19.2 20.9
2017-Jun-25 16:00N 42°30' W 082°36'1110.7 320 / 141016.5 18.3 20.5
2017-Jun-25 15:00N 42°24' W 082°48'4 4.4 270 / 161016.2 17.9 21.8
2017-Jun-25 14:00N 42°24' W 082°54'1110.7 260 / 121016.5 19.5 22.6
2017-Jun-25 13:00N 42°18' W 083°06'0 0.0 280 / 101016.5 16.7 23.8
2017-Jun-25 12:00N 42°18' W 083°06'0 0.0 300 / 81016.5 16.0 23.8
2017-Jun-25 11:00N 42°18' W 083°06'0 0.0 260 / 71016.5 15.7 23.7
2017-Jun-25 10:00N 42°18' W 083°06'6 6.0 260 / 101015.9 15.4 23.3
2017-Jun-25 09:00N 42°12' W 083°06'6 6.0 250 / 81015.9 14.7 23.7
2017-Jun-25 08:00N 42°06' W 083°06'1212.0 270 / 141015.7 16.6 23.8
2017-Jun-25 07:00N 41°54' W 083°06'9 8.9 280 / 211016.4 18.9 24.6
2017-Jun-25 06:00N 41°54' W 082°54'9 8.9 280 / 191016.1 19.9 24.8
2017-Jun-25 05:00N 41°54' W 082°42'1110.8 300 / 241016.1 20.9 25.4
2017-Jun-25 04:00N 41°48' W 082°30'19 9.4 300 / 251016.4 20.7 23.9
2017-Jun-25 02:00N 41°42' W 082°06'1110.8 300 / 201015.4 21.7 24.6
2017-Jun-25 01:00N 41°36' W 081°54'1110.8 290 / 161014.7 21.8 24.3
2017-Jun-25 00:00N 41°30' W 081°42'0 0.0 290 / 181014.0 22.3 26.1
2017-Jun-24 23:00N 41°30' W 081°42'0 0.0 290 / 91013.7 23.9 26.4
2017-Jun-24 22:00N 41°30' W 081°42'0 0.0 320 / 61013.4 23.8 26.2
2017-Jun-24 21:00N 41°30' W 081°42'0 0.0 350 / 51013.7 23.5 26.2
2017-Jun-24 20:00N 41°30' W 081°42'0 0.0 320 / 71013.7 23.0 26.3
2017-Jun-24 19:00N 41°30' W 081°42'0 0.0 320 / 81013.7 22.8 26.4
2017-Jun-24 18:00N 41°30' W 081°42'0 0.0 310 / 71013.4 23.0 26.1
2017-Jun-24 17:00N 41°30' W 081°42'0 0.0 320 / 81013.0 22.8 26.1
2017-Jun-24 16:00N 41°30' W 081°42'1110.8 280 / 151012.7 20.6 25.5
2017-Jun-24 15:00N 41°36' W 081°54'9 9.0 260 / 181012.4 19.7 24.3
2017-Jun-24 14:00N 41°36' W 082°06'9 9.0 280 / 161012.4 24.3 24.5
2017-Jun-24 13:00N 41°36' W 082°18'9 9.0 270 / 161011.7 20.1 24.1
2017-Jun-24 12:00N 41°36' W 082°30'1110.8 280 / 141011.0 23.1 25.0
2017-Jun-24 11:00N 41°30' W 082°42'0 0.0 260 / 111010.7 18.2 22.7
2017-Jun-24 10:00N 41°30' W 082°42'0 0.0 240 / 101010.0 17.6 23.0
2017-Jun-24 09:00N 41°30' W 082°42'0 0.0 260 / 101009.0 19.4 23.0
2017-Jun-24 08:00N 41°30' W 082°42'0 0.0 270 / 111008.6 19.1 23.0
2017-Jun-24 07:00N 41°30' W 082°42'0 0.0 270 / 111008.6 19.8 23.1
2017-Jun-24 06:00N 41°30' W 082°42'0 0.0 270 / 101008.3 20.2 23.0
2017-Jun-24 03:00N 41°30' W 082°42'0 0.0 260 / 111006.9 21.3 22.8
2017-Jun-24 02:00N 41°30' W 082°42'0 0.0 240 / 101005.9 21.5 22.8
2017-Jun-24 01:00N 41°30' W 082°42'0 0.0 240 / 101005.6 21.8 23.0
2017-Jun-24 00:00N 41°30' W 082°42'0 0.0 250 / 111004.9 21.8 22.9
2017-Jun-23 23:00N 41°30' W 082°42'0 0.0 260 / 141004.6 21.9 22.8
2017-Jun-23 22:00N 41°30' W 082°42'1110.8 250 / 181003.9 22.4 23.3
2017-Jun-23 21:00N 41°36' W 082°30'9 9.0 250 / 221003.6 22.9 25.4
2017-Jun-23 20:00N 41°36' W 082°18'9 9.0 250 / 161003.6 22.1 24.1
2017-Jun-23 19:00N 41°36' W 082°06'9 9.0 260 / 191003.9 22.0 24.8
2017-Jun-23 18:00N 41°36' W 081°54'1110.8 220 / 211003.2 23.3 24.5
2017-Jun-23 17:00N 41°30' W 081°42'0 0.0 240 / 131003.9 24.5 27.7
2017-Jun-23 16:00N 41°30' W 081°42'0 0.0 210 / 71004.2 24.5 27.8
2017-Jun-23 15:00N 41°30' W 081°42'0 0.0 300 / 71004.6 24.6 27.9
2017-Jun-23 14:00N 41°30' W 081°42'0 0.0 230 / 81004.9 23.7 27.9
2017-Jun-23 13:00N 41°30' W 081°42'0 0.0 200 / 101005.6 22.4 27.8
2017-Jun-23 12:00N 41°30' W 081°42'0 0.0 200 / 71005.9 21.1 27.9
2017-Jun-23 11:00N 41°30' W 081°42'0 0.0 170 / 61006.3 21.1 27.7
2017-Jun-23 10:00N 41°30' W 081°42'0 0.0 190 / 91006.6 22.8 27.7
2017-Jun-23 09:00N 41°30' W 081°42'0 0.0 160 / 81006.9 23.1 27.7
2017-Jun-23 08:00N 41°30' W 081°42'4 4.5 170 / 121008.3 23.5 26.2
2017-Jun-23 07:00N 41°30' W 081°48'1110.8 210 / 181008.6 23.4 24.6
2017-Jun-23 06:00N 41°36' W 082°00'9 9.0 200 / 171009.3 23.8 25.2
2017-Jun-23 05:00N 41°36' W 082°12'9 9.0 200 / 211010.0 23.8 24.3
2017-Jun-23 04:00N 41°36' W 082°24'9 9.0 200 / 211010.7 23.8 25.0
2017-Jun-23 03:00N 41°36' W 082°36'7 7.5 200 / 221011.0 25.3 25.1
2017-Jun-23 02:00N 41°30' W 082°42'0 0.0 210 / 121011.0 27.3 24.1
2017-Jun-23 01:00N 41°30' W 082°42'0 0.0 210 / 111011.0 28.4 25.0
2017-Jun-23 00:00N 41°30' W 082°42'0 0.0 220 / 131010.7 29.4 24.9
2017-Jun-22 23:00N 41°30' W 082°42'0 0.0 230 / 81010.7 28.3 25.1
2017-Jun-22 22:00N 41°30' W 082°42'0 0.0 230 / 161011.0 29.9 25.3
2017-Jun-22 21:00N 41°30' W 082°42'0 0.0 220 / 131011.7 30.3 25.3
2017-Jun-22 20:00N 41°30' W 082°42'0 0.0 240 / 151012.0 29.9 25.4
2017-Jun-22 19:00N 41°30' W 082°42'0 0.0 230 / 151012.7 29.0 25.2
2017-Jun-22 18:00N 41°30' W 082°42'0 0.0 240 / 91013.4 28.0 24.9
2017-Jun-22 17:00N 41°30' W 082°42'0 0.0 210 / 111014.7 25.1 25.0
2017-Jun-22 16:00N 41°30' W 082°42'0 0.0 240 / 111015.4 23.6 25.2
2017-Jun-22 15:00N 41°30' W 082°42'0 0.0 230 / 121014.7 25.5 25.2
2017-Jun-22 14:00N 41°30' W 082°42'7 7.5 260 / 91014.4 25.8 24.3
2017-Jun-22 13:00N 41°36' W 082°36'9 9.0 230 / 91014.4 22.3 25.2
2017-Jun-22 12:00N 41°36' W 082°24'9 9.0 180 / 101014.7 21.0 24.3
2017-Jun-22 11:00N 41°36' W 082°12'9 9.0 170 / 141014.4 20.0 24.5
2017-Jun-22 10:00N 41°36' W 082°00'1514.7 160 / 101015.4 19.8 24.8
2017-Jun-22 09:00N 41°30' W 081°42'0 0.0 150 / 111015.4 18.2 26.1
2017-Jun-22 08:00N 41°30' W 081°42'0 0.0 130 / 91015.4 17.4 26.7
2017-Jun-22 07:00N 41°30' W 081°42'0 0.0 130 / 41015.7 18.3 28.8
2017-Jun-22 06:00N 41°30' W 081°42'0 0.0 160 / 41016.4 17.5 28.2
2017-Jun-22 05:00N 41°30' W 081°42'0 0.0 160 / 31016.4 17.1 27.9
2017-Jun-22 04:00N 41°30' W 081°42'0 0.0 140 / 41016.4 18.4 27.8
2017-Jun-22 03:00N 41°30' W 081°42'0 0.0 130 / 31016.4 19.8 27.2
2017-Jun-22 02:00N 41°30' W 081°42'0 0.0 130 / 71016.1 20.5 27.4
2017-Jun-22 01:00N 41°30' W 081°42'0 0.0 080 / 31015.7 21.4 27.5
2017-Jun-22 00:00N 41°30' W 081°42'0 0.0 090 / 31016.1 21.5 28.7
2017-Jun-21 23:00N 41°30' W 081°42'0 0.0 070 / 41016.1 21.1 29.0
2017-Jun-21 22:00N 41°30' W 081°42'0 0.0 030 / 71016.4 19.7 27.3
2017-Jun-21 21:00N 41°30' W 081°42'0 0.0 040 / 101016.4 19.3 27.6
2017-Jun-21 20:00N 41°30' W 081°42'0 0.0 010 / 71016.8 18.8 27.2
2017-Jun-21 19:00N 41°30' W 081°42'1110.8 020 / 91016.8 19.3 25.4
2017-Jun-21 18:00N 41°36' W 081°54'1110.8 020 / 91016.4 18.5 23.5
2017-Jun-21 17:00N 41°42' W 082°06'9 9.0 010 / 11017.4 18.0 23.7
2017-Jun-21 16:00N 41°42' W 082°18'2210.8 100 / 31017.1 17.9 23.8
2017-Jun-21 14:00N 41°54' W 082°42'9 8.9 070 / 31017.1 17.4 25.7
2017-Jun-21 13:00N 41°54' W 082°54'9 8.9 020 / 81016.4 16.9 24.5
2017-Jun-21 12:00N 41°54' W 083°06'1212.0 010 / 61016.4 16.7 25.5
2017-Jun-21 11:00N 42°06' W 083°06'6 6.0 320 / 81015.7 15.4 23.1
2017-Jun-21 10:00N 42°12' W 083°06'7 7.5 300 / 71015.2 14.8 23.1
2017-Jun-21 09:00N 42°18' W 083°00'1110.7 280 / 61015.2 15.3 22.8
2017-Jun-21 08:00N 42°24' W 082°48'1110.7 290 / 111014.8 15.6 20.9
2017-Jun-21 07:00N 42°30' W 082°36'1312.8 300 / 91014.5 15.2 19.6
2017-Jun-21 06:00N 42°42' W 082°30'6 6.0 240 / 51014.7 13.3 20.0
2017-Jun-21 05:00N 42°48' W 082°30'1312.8 240 / 61014.3 13.7 20.1
2017-Jun-21 04:00N 43°00' W 082°24'1212.0 260 / 81014.0 14.6 20.2
2017-Jun-21 03:00N 43°12' W 082°24'7 7.4 260 / 141014.0 16.1 20.4
2017-Jun-21 02:00N 43°18' W 082°18'7 7.4 240 / 101013.7 16.7 20.3
2017-Jun-21 01:00N 43°24' W 082°12'1312.8 210 / 101013.0 16.3 19.7
2017-Jun-21 00:00N 43°36' W 082°06'1212.0 280 / 81013.0 16.5 19.0
2017-Jun-20 23:00N 43°48' W 082°06'7 7.4 290 / 171012.7 16.0 18.4
2017-Jun-20 22:00N 43°54' W 082°12'111 8.9 280 / 211012.3 15.8 17.9
2017-Jun-20 09:33N 45°38' W 083°07'0 9.6
2017-Jun-20 09:30N 45°38' W 083°08'5 9.6
2017-Jun-20 08:59N 45°40' W 083°14'5 9.5
2017-Jun-20 08:30N 45°43' W 083°19'5 9.4
2017-Jun-20 08:00N 45°45' W 083°25'5 9.4
2017-Jun-20 07:30N 45°48' W 083°30'5 9.3
2017-Jun-20 07:00N 45°50' W 083°36'2140.6
2017-Jun-20 07:00N 45°48' W 083°36'611.6 150 / 71008.9 12.2 16.4
2017-Jun-20 06:30N 45°51' W 083°43'5 9.4
2017-Jun-20 06:00N 45°51' W 083°50'3471.1
2017-Jun-20 06:00N 45°54' W 083°48'612.4 320 / 61008.9 12.2 16.7
2017-Jun-20 05:29N 45°52' W 083°57'5 9.5
2017-Jun-20 05:00N 45°53' W 084°03'33077.7
2017-Jun-20 05:00N 45°54' W 084°00'714.2 340 / 61009.3 12.1 17.4
2017-Jun-20 04:30N 45°53' W 084°10'4 9.0
2017-Jun-20 04:00N 45°57' W 084°14'3223.0
2017-Jun-20 04:00N 45°54' W 084°12'612.0 320 / 41009.9 11.4 18.0
2017-Jun-20 03:30N 45°59' W 084°17'1 2.8
2017-Jun-20 03:00N 46°00' W 084°18'110.7 320 / 61009.3 11.5 16.4
2017-Jun-20 02:52N 45°59' W 084°17'0 0.0
2017-Jun-20 02:30N 45°59' W 084°17'1 2.8
2017-Jun-20 02:00N 46°00' W 084°18'1 2.5 350 / 61008.9 13.1 16.9
2017-Jun-20 01:26N 45°59' W 084°17'1 3.3
2017-Jun-20 01:00N 46°00' W 084°18'115.8 350 / 81008.6 15.0 16.8
2017-Jun-20 00:54N 45°59' W 084°17'1 1.3
2017-Jun-20 00:29N 45°59' W 084°16'4 8.2
2017-Jun-20 00:00N 45°56' W 084°13'2114.0
2017-Jun-20 00:00N 45°54' W 084°12'3 6.3 330 / 161008.3 17.1 18.4
2017-Jun-19 23:31N 45°52' W 084°09'4 8.3
2017-Jun-19 23:00N 45°48' W 084°06'138.0 320 / 121008.3 15.1 16.8
2017-Jun-19 22:58N 45°47' W 084°05'8 9.3
2017-Jun-19 22:08N 45°41' W 083°59'1 8.4
2017-Jun-19 22:00N 45°42' W 084°00'369.6 040 / 61007.9 15.4 16.3
2017-Jun-19 21:57N 45°39' W 083°58'5 9.4
2017-Jun-19 21:27N 45°35' W 083°54'4 9.6
2017-Jun-19 21:00N 45°32' W 083°51'3301.1
2017-Jun-19 21:00N 45°30' W 083°54'510.4 020 / 101007.9 14.8 15.4
2017-Jun-19 20:30N 45°28' W 083°47'3 6.0
2017-Jun-19 20:00N 45°25' W 083°47'1210.7
2017-Jun-19 20:00N 45°24' W 083°48'1 2.1 010 / 61007.9 14.6 15.7
2017-Jun-19 19:30N 45°25' W 083°47'0 0.0
2017-Jun-19 19:00N 45°25' W 083°47'1148.6
2017-Jun-19 19:00N 45°24' W 083°48'1 2.0 320 / 101007.6 14.6 14.9
2017-Jun-19 18:31N 45°25' W 083°47'0 0.0
2017-Jun-19 18:00N 45°25' W 083°47'166.5
2017-Jun-19 18:00N 45°24' W 083°48'1 1.9 320 / 141007.6 15.9 14.6
2017-Jun-19 17:30N 45°25' W 083°47'0 0.0
2017-Jun-19 17:01N 45°25' W 083°47'155.3
2017-Jun-19 17:00N 45°24' W 083°48'1 2.0 330 / 141007.6 14.3 14.4
2017-Jun-19 16:30N 45°25' W 083°47'0 0.1
2017-Jun-19 16:00N 45°25' W 083°47'167.5
2017-Jun-19 16:00N 45°24' W 083°48'1 2.1 330 / 101007.2 14.3 14.4
2017-Jun-19 15:30N 45°25' W 083°47'0 0.0
2017-Jun-19 15:00N 45°25' W 083°47'1113.2
2017-Jun-19 15:00N 45°24' W 083°48'1 1.0 320 / 121006.6 19.2 14.3
2017-Jun-19 14:00N 45°25' W 083°47'1101.2
2017-Jun-19 14:00N 45°24' W 083°48'1 2.0 270 / 91006.9 19.1 14.6
2017-Jun-19 13:31N 45°25' W 083°47'0 0.0
2017-Jun-19 13:00N 45°25' W 083°47'166.2
2017-Jun-19 13:00N 45°24' W 083°48'1 2.0 280 / 81006.6 17.9 14.4
2017-Jun-19 12:30N 45°25' W 083°47'0 0.1
2017-Jun-19 12:00N 45°25' W 083°47'168.5
2017-Jun-19 12:00N 45°24' W 083°48'4 7.3 260 / 71006.6 16.8 14.1
2017-Jun-19 11:30N 45°26' W 083°43'5 9.3
2017-Jun-19 11:00N 45°25' W 083°37'162.9
2017-Jun-19 11:00N 45°24' W 083°36'4 8.4 260 / 91005.9 14.9 14.4
2017-Jun-19 10:29N 45°23' W 083°30'4 9.0
2017-Jun-19 10:00N 45°21' W 083°25'3259.3
2017-Jun-19 10:00N 45°24' W 083°24'1312.7 250 / 161004.9 15.1 15.2
2017-Jun-19 09:00N 45°12' W 083°18'1010.4 270 / 151004.2 14.4 16.2
2017-Jun-19 08:00N 45°06' W 083°06'6 6.0 290 / 161004.2 15.1 16.2
2017-Jun-19 07:00N 45°00' W 083°06'1212.0 260 / 141004.2 15.1 17.4
2017-Jun-19 06:00N 44°48' W 083°06'1312.7 260 / 121004.2 16.1 17.4
2017-Jun-19 05:00N 44°36' W 083°12'6 6.0 290 / 141004.2 16.5 16.8
2017-Jun-19 04:00N 44°30' W 083°12'1212.0 280 / 111004.2 17.4 16.5
2017-Jun-19 03:00N 44°18' W 083°12'1010.5 250 / 151004.5 17.2 17.7
2017-Jun-19 02:00N 44°12' W 083°00'9 8.6 250 / 221003.9 18.6 18.5
2017-Jun-19 01:00N 44°12' W 082°48'1312.8 250 / 211003.2 18.7 18.4
2017-Jun-19 00:00N 44°00' W 082°42'7 7.4 260 / 221002.2 20.6 16.8
2017-Jun-18 23:00N 43°54' W 082°36'7 7.4 260 / 251001.8 21.3 17.7
2017-Jun-18 22:00N 43°48' W 082°30'1212.0 260 / 261001.1 22.3 18.2
2017-Jun-18 21:00N 43°36' W 082°30'6 6.0 260 / 221000.8 23.5 19.0
2017-Jun-18 20:00N 43°30' W 082°30'1312.8 270 / 261000.1 24.9 20.6
2017-Jun-18 19:00N 43°18' W 082°24'1212.0 250 / 211000.5 25.6 21.3
2017-Jun-18 18:00N 43°06' W 082°24'6 6.0 240 / 131001.1 24.6 20.7
2017-Jun-18 17:00N 43°00' W 082°24'7 7.4 240 / 131002.2 26.2 18.7
2017-Jun-18 16:00N 42°54' W 082°30'6 6.0 210 / 101002.5 24.6 19.7
2017-Jun-18 15:00N 42°48' W 082°30'6 6.0 210 / 111002.5 24.7 19.4
2017-Jun-18 14:00N 42°42' W 082°30'7 7.4 220 / 141003.2 23.8 19.5
2017-Jun-18 13:00N 42°36' W 082°36'1110.7 200 / 151003.0 23.9 19.7
2017-Jun-18 12:00N 42°30' W 082°48'7 7.5 210 / 161003.0 26.5 22.4
2017-Jun-18 11:00N 42°24' W 082°54'1110.7 240 / 161003.3 29.7 23.9
2017-Jun-18 10:00N 42°18' W 083°06'0 0.0 240 / 141003.0 26.6 24.8
2017-Jun-18 09:00N 42°18' W 083°06'0 0.0 200 / 61003.0 27.3 25.2
2017-Jun-18 08:00N 42°18' W 083°06'0 0.0 200 / 61002.3 24.7 25.2
2017-Jun-18 07:00N 42°18' W 083°06'0 0.0 180 / 101002.6 24.3 25.3
2017-Jun-18 06:00N 42°18' W 083°06'0 0.0 200 / 111003.7 24.6 25.7
2017-Jun-18 05:00N 42°18' W 083°06'0 0.0 190 / 81005.0 24.3 28.8
2017-Jun-18 04:00N 42°18' W 083°06'0 0.0 230 / 101005.7 24.5 28.4
2017-Jun-18 03:00N 42°18' W 083°06'4 4.4 260 / 81006.0 27.3 27.6
2017-Jun-18 02:00N 42°18' W 083°00'1110.7 180 / 141005.7 28.2 24.8
2017-Jun-18 01:00N 42°24' W 082°48'7 7.5 210 / 241005.0 28.2 22.7
2017-Jun-18 00:00N 42°30' W 082°42'1110.7 210 / 221005.0 26.0 20.6
2017-Jun-17 23:00N 42°36' W 082°30'1212.0 210 / 151005.5 28.6 20.0
2017-Jun-17 22:00N 42°48' W 082°30'6 6.0 200 / 181005.5 27.6 19.9
2017-Jun-17 21:00N 42°54' W 082°30'1312.8 190 / 171004.9 27.5 20.0
2017-Jun-17 20:00N 43°06' W 082°24'6 6.0 190 / 191005.2 26.4 19.9
2017-Jun-17 19:00N 43°12' W 082°24'6 6.0 120 / 171006.2 20.4 20.3
2017-Jun-17 18:00N 43°18' W 082°24'1212.0 120 / 181006.6 18.6 19.8
2017-Jun-17 17:00N 43°30' W 082°24'6 6.0 120 / 151006.6 18.1 20.3
2017-Jun-17 16:00N 43°36' W 082°24'1212.0 160 / 101007.2 17.5 19.6
2017-Jun-17 15:00N 43°48' W 082°24'6 6.0 130 / 41007.9 18.4 18.2
2017-Jun-17 14:00N 43°54' W 082°24'1312.8 260 / 91008.9 17.5 17.6
2017-Jun-17 13:00N 44°06' W 082°30'7 7.4 280 / 111008.6 17.5 17.6
2017-Jun-17 12:00N 44°12' W 082°36'62 8.9 190 / 211006.9 17.5 17.8
2017-Jun-17 05:00N 45°12' W 083°00'1010.4 300 / 91006.9 16.0 15.4
2017-Jun-17 04:00N 45°18' W 083°12'8 8.4 290 / 81007.6 15.3 15.8
2017-Jun-17 03:00N 45°18' W 083°24'0 0.0 210 / 61007.6 18.3 10.6
2017-Jun-17 02:00N 45°18' W 083°24'0 0.0 200 / 121007.2 17.0 10.6
2017-Jun-17 01:00N 45°18' W 083°24'0 0.0 180 / 111007.2 18.3 10.9
2017-Jun-17 00:00N 45°18' W 083°24'0 0.0 200 / 81007.2 20.3 11.4
2017-Jun-16 23:00N 45°18' W 083°24'   180 / 131007.6 21.1 11.8
Track history (hours):
 
Tides and Currents Weather Stations Pressure Air Temp Water Temp Dewpoint Dewpoint Depression Visibility Wind Speed Wind Dir Waves Ship Positions

Dorothy Ann

Owner: THE INTERLAKE STEAMSHIP COMPANY, Middleburg Heights, OH. More information available from US FCC via Universal Licensing System and Coast Guard Vessel Documentation Center.

Last reported at 2017-Jun-26 23:00 UTC. Time now 2017-Jun-27 00:06 UTC.
Position N 45°54' W 084°06'.

Length 215 m; draft 5.8 m.

Type: Cargo ship. MMSI: 367409260.

Wind from 320 at 14 knots

Barometer 1013.3 mb
Air temperature 12.3 ° C
Water temperature 18.0 ° C

Date/timePositionNaut miles runAvg speedWind from/ knotsBaromVisibWave heightAir tempDewpointWater temp
2017-Jun-26 23:00N 45°54' W 084°06'2 8.2 320 / 141013.3 12.3 18.0
2017-Jun-26 22:45N 45°52' W 084°07'5 7.1
2017-Jun-26 22:03N 45°55' W 084°13'122.7
2017-Jun-26 22:00N 45°54' W 084°12'2366.5 330 / 141013.7 12.1 16.8
2017-Jun-26 21:59N 45°56' W 084°13'6 5.7
2017-Jun-26 21:00N 46°00' W 084°18'0 0.0 280 / 71014.0 14.0 13.7
2017-Jun-26 20:00N 46°00' W 084°18'0 0.0 310 / 61014.0 12.1 13.8
2017-Jun-26 19:00N 46°00' W 084°18'1 2.8 310 / 71013.7 12.9 13.8
2017-Jun-26 18:30N 45°59' W 084°17'1 2.8
2017-Jun-26 18:00N 46°00' W 084°18'2 5.8 340 / 51013.7 12.6 13.5
2017-Jun-26 17:41N 45°59' W 084°16'1 5.9
2017-Jun-26 17:30N 45°58' W 084°15'5 9.0
2017-Jun-26 17:00N 45°54' W 084°12'121.1 030 / 111013.7 12.4 17.7
2017-Jun-26 16:56N 45°54' W 084°10'5 9.7
2017-Jun-26 16:24N 45°50' W 084°05'410.0
2017-Jun-26 16:00N 45°48' W 084°00'6 9.6 010 / 41013.7 12.5 18.5
2017-Jun-26 15:21N 45°43' W 083°54'3 9.3
2017-Jun-26 15:01N 45°41' W 083°51'2134.4
2017-Jun-26 15:00N 45°42' W 083°54'714.2 300 / 161013.3 13.0 17.4
2017-Jun-26 14:30N 45°38' W 083°46'3 6.6
2017-Jun-26 14:00N 45°36' W 083°42'612.8 260 / 111013.3 13.2 17.2
2017-Jun-26 13:31N 45°31' W 083°36'5 9.8
2017-Jun-26 13:00N 45°28' W 083°31'2163.8
2017-Jun-26 13:00N 45°30' W 083°30'612.3 250 / 51014.0 13.5 17.5
2017-Jun-26 12:30N 45°25' W 083°26'1 2.9
2017-Jun-26 12:00N 45°24' W 083°24'1514.7 180 / 21014.0 13.2 17.9
2017-Jun-26 11:00N 45°12' W 083°12'7 7.3 210 / 31014.3 13.4 17.1
2017-Jun-26 10:00N 45°06' W 083°06'1312.7 240 / 81014.0 13.6 17.6
2017-Jun-26 09:00N 44°54' W 083°00'6 6.0 270 / 91014.0 13.6 18.3
2017-Jun-26 08:00N 44°48' W 083°00'1312.7 240 / 81014.3 13.9 18.2
2017-Jun-26 07:00N 44°36' W 082°54'7 7.4 240 / 61014.7 14.1 18.8
2017-Jun-26 06:00N 44°30' W 082°48'19 9.3 350 / 51015.4 13.7 18.8
2017-Jun-26 04:00N 44°12' W 082°42'1312.8 310 / 91015.7 14.5 19.5
2017-Jun-26 03:00N 44°00' W 082°36'7 7.4 350 / 131016.0 15.2 20.6
2017-Jun-26 02:00N 43°54' W 082°30'1212.0 260 / 161015.4 16.6 20.0
2017-Jun-26 01:00N 43°42' W 082°30'1212.0 260 / 131015.7 16.8 19.5
2017-Jun-26 00:00N 43°30' W 082°30'6 6.0 260 / 151015.7 16.5 18.9
2017-Jun-25 23:00N 43°24' W 082°30'1312.8 270 / 181015.7 17.8 18.2
2017-Jun-25 22:00N 43°12' W 082°24'6 6.0 270 / 211015.7 18.9 20.9
2017-Jun-25 21:00N 43°06' W 082°24'6 6.0 290 / 121016.0 18.3 20.9
2017-Jun-25 20:00N 43°00' W 082°24'7 7.4 250 / 101016.7 18.1 20.9
2017-Jun-25 19:00N 42°54' W 082°30'1212.0 310 / 121016.4 18.9 20.9
2017-Jun-25 18:00N 42°42' W 082°30'6 6.0 260 / 151016.4 19.2 20.8
2017-Jun-25 17:00N 42°36' W 082°30'7 7.5 300 / 121017.1 19.2 20.9
2017-Jun-25 16:00N 42°30' W 082°36'1110.7 320 / 141016.5 18.3 20.5
2017-Jun-25 15:00N 42°24' W 082°48'4 4.4 270 / 161016.2 17.9 21.8
2017-Jun-25 14:00N 42°24' W 082°54'1110.7 260 / 121016.5 19.5 22.6
2017-Jun-25 13:00N 42°18' W 083°06'0 0.0 280 / 101016.5 16.7 23.8
2017-Jun-25 12:00N 42°18' W 083°06'0 0.0 300 / 81016.5 16.0 23.8
2017-Jun-25 11:00N 42°18' W 083°06'0 0.0 260 / 71016.5 15.7 23.7
2017-Jun-25 10:00N 42°18' W 083°06'6 6.0 260 / 101015.9 15.4 23.3
2017-Jun-25 09:00N 42°12' W 083°06'6 6.0 250 / 81015.9 14.7 23.7
2017-Jun-25 08:00N 42°06' W 083°06'1212.0 270 / 141015.7 16.6 23.8
2017-Jun-25 07:00N 41°54' W 083°06'9 8.9 280 / 211016.4 18.9 24.6
2017-Jun-25 06:00N 41°54' W 082°54'9 8.9 280 / 191016.1 19.9 24.8
2017-Jun-25 05:00N 41°54' W 082°42'1110.8 300 / 241016.1 20.9 25.4
2017-Jun-25 04:00N 41°48' W 082°30'19 9.4 300 / 251016.4 20.7 23.9
2017-Jun-25 02:00N 41°42' W 082°06'1110.8 300 / 201015.4 21.7 24.6
2017-Jun-25 01:00N 41°36' W 081°54'1110.8 290 / 161014.7 21.8 24.3
2017-Jun-25 00:00N 41°30' W 081°42'0 0.0 290 / 181014.0 22.3 26.1
2017-Jun-24 23:00N 41°30' W 081°42'0 0.0 290 / 91013.7 23.9 26.4
2017-Jun-24 22:00N 41°30' W 081°42'0 0.0 320 / 61013.4 23.8 26.2
2017-Jun-24 21:00N 41°30' W 081°42'0 0.0 350 / 51013.7 23.5 26.2
2017-Jun-24 20:00N 41°30' W 081°42'0 0.0 320 / 71013.7 23.0 26.3
2017-Jun-24 19:00N 41°30' W 081°42'0 0.0 320 / 81013.7 22.8 26.4
2017-Jun-24 18:00N 41°30' W 081°42'0 0.0 310 / 71013.4 23.0 26.1
2017-Jun-24 17:00N 41°30' W 081°42'0 0.0 320 / 81013.0 22.8 26.1
2017-Jun-24 16:00N 41°30' W 081°42'1110.8 280 / 151012.7 20.6 25.5
2017-Jun-24 15:00N 41°36' W 081°54'9 9.0 260 / 181012.4 19.7 24.3
2017-Jun-24 14:00N 41°36' W 082°06'9 9.0 280 / 161012.4 24.3 24.5
2017-Jun-24 13:00N 41°36' W 082°18'9 9.0 270 / 161011.7 20.1 24.1
2017-Jun-24 12:00N 41°36' W 082°30'1110.8 280 / 141011.0 23.1 25.0
2017-Jun-24 11:00N 41°30' W 082°42'0 0.0 260 / 111010.7 18.2 22.7
2017-Jun-24 10:00N 41°30' W 082°42'0 0.0 240 / 101010.0 17.6 23.0
2017-Jun-24 09:00N 41°30' W 082°42'0 0.0 260 / 101009.0 19.4 23.0
2017-Jun-24 08:00N 41°30' W 082°42'0 0.0 270 / 111008.6 19.1 23.0
2017-Jun-24 07:00N 41°30' W 082°42'0 0.0 270 / 111008.6 19.8 23.1
2017-Jun-24 06:00N 41°30' W 082°42'0 0.0 270 / 101008.3 20.2 23.0
2017-Jun-24 03:00N 41°30' W 082°42'0 0.0 260 / 111006.9 21.3 22.8
2017-Jun-24 02:00N 41°30' W 082°42'0 0.0 240 / 101005.9 21.5 22.8
2017-Jun-24 01:00N 41°30' W 082°42'0 0.0 240 / 101005.6 21.8 23.0
2017-Jun-24 00:00N 41°30' W 082°42'0 0.0 250 / 111004.9 21.8 22.9
2017-Jun-23 23:00N 41°30' W 082°42'0 0.0 260 / 141004.6 21.9 22.8
2017-Jun-23 22:00N 41°30' W 082°42'1110.8 250 / 181003.9 22.4 23.3
2017-Jun-23 21:00N 41°36' W 082°30'9 9.0 250 / 221003.6 22.9 25.4
2017-Jun-23 20:00N 41°36' W 082°18'9 9.0 250 / 161003.6 22.1 24.1
2017-Jun-23 19:00N 41°36' W 082°06'9 9.0 260 / 191003.9 22.0 24.8
2017-Jun-23 18:00N 41°36' W 081°54'1110.8 220 / 211003.2 23.3 24.5
2017-Jun-23 17:00N 41°30' W 081°42'0 0.0 240 / 131003.9 24.5 27.7
2017-Jun-23 16:00N 41°30' W 081°42'0 0.0 210 / 71004.2 24.5 27.8
2017-Jun-23 15:00N 41°30' W 081°42'0 0.0 300 / 71004.6 24.6 27.9
2017-Jun-23 14:00N 41°30' W 081°42'0 0.0 230 / 81004.9 23.7 27.9
2017-Jun-23 13:00N 41°30' W 081°42'0 0.0 200 / 101005.6 22.4 27.8
2017-Jun-23 12:00N 41°30' W 081°42'0 0.0 200 / 71005.9 21.1 27.9
2017-Jun-23 11:00N 41°30' W 081°42'0 0.0 170 / 61006.3 21.1 27.7
2017-Jun-23 10:00N 41°30' W 081°42'0 0.0 190 / 91006.6 22.8 27.7
2017-Jun-23 09:00N 41°30' W 081°42'0 0.0 160 / 81006.9 23.1 27.7
2017-Jun-23 08:00N 41°30' W 081°42'4 4.5 170 / 121008.3 23.5 26.2
2017-Jun-23 07:00N 41°30' W 081°48'1110.8 210 / 181008.6 23.4 24.6
2017-Jun-23 06:00N 41°36' W 082°00'9 9.0 200 / 171009.3 23.8 25.2
2017-Jun-23 05:00N 41°36' W 082°12'9 9.0 200 / 211010.0 23.8 24.3
2017-Jun-23 04:00N 41°36' W 082°24'9 9.0 200 / 211010.7 23.8 25.0
2017-Jun-23 03:00N 41°36' W 082°36'7 7.5 200 / 221011.0 25.3 25.1
2017-Jun-23 02:00N 41°30' W 082°42'0 0.0 210 / 121011.0 27.3 24.1
2017-Jun-23 01:00N 41°30' W 082°42'0 0.0 210 / 111011.0 28.4 25.0
2017-Jun-23 00:00N 41°30' W 082°42'0 0.0 220 / 131010.7 29.4 24.9
2017-Jun-22 23:00N 41°30' W 082°42'0 0.0 230 / 81010.7 28.3 25.1
2017-Jun-22 22:00N 41°30' W 082°42'0 0.0 230 / 161011.0 29.9 25.3
2017-Jun-22 21:00N 41°30' W 082°42'0 0.0 220 / 131011.7 30.3 25.3
2017-Jun-22 20:00N 41°30' W 082°42'0 0.0 240 / 151012.0 29.9 25.4
2017-Jun-22 19:00N 41°30' W 082°42'0 0.0 230 / 151012.7 29.0 25.2
2017-Jun-22 18:00N 41°30' W 082°42'0 0.0 240 / 91013.4 28.0 24.9
2017-Jun-22 17:00N 41°30' W 082°42'0 0.0 210 / 111014.7 25.1 25.0
2017-Jun-22 16:00N 41°30' W 082°42'0 0.0 240 / 111015.4 23.6 25.2
2017-Jun-22 15:00N 41°30' W 082°42'0 0.0 230 / 121014.7 25.5 25.2
2017-Jun-22 14:00N 41°30' W 082°42'7 7.5 260 / 91014.4 25.8 24.3
2017-Jun-22 13:00N 41°36' W 082°36'9 9.0 230 / 91014.4 22.3 25.2
2017-Jun-22 12:00N 41°36' W 082°24'9 9.0 180 / 101014.7 21.0 24.3
2017-Jun-22 11:00N 41°36' W 082°12'9 9.0 170 / 141014.4 20.0 24.5
2017-Jun-22 10:00N 41°36' W 082°00'1514.7 160 / 101015.4 19.8 24.8
2017-Jun-22 09:00N 41°30' W 081°42'0 0.0 150 / 111015.4 18.2 26.1
2017-Jun-22 08:00N 41°30' W 081°42'0 0.0 130 / 91015.4 17.4 26.7
2017-Jun-22 07:00N 41°30' W 081°42'0 0.0 130 / 41015.7 18.3 28.8
2017-Jun-22 06:00N 41°30' W 081°42'0 0.0 160 / 41016.4 17.5 28.2
2017-Jun-22 05:00N 41°30' W 081°42'0 0.0 160 / 31016.4 17.1 27.9
2017-Jun-22 04:00N 41°30' W 081°42'0 0.0 140 / 41016.4 18.4 27.8
2017-Jun-22 03:00N 41°30' W 081°42'0 0.0 130 / 31016.4 19.8 27.2
2017-Jun-22 02:00N 41°30' W 081°42'0 0.0 130 / 71016.1 20.5 27.4
2017-Jun-22 01:00N 41°30' W 081°42'0 0.0 080 / 31015.7 21.4 27.5
2017-Jun-22 00:00N 41°30' W 081°42'0 0.0 090 / 31016.1 21.5 28.7
2017-Jun-21 23:00N 41°30' W 081°42'0 0.0 070 / 41016.1 21.1 29.0
2017-Jun-21 22:00N 41°30' W 081°42'0 0.0 030 / 71016.4 19.7 27.3
2017-Jun-21 21:00N 41°30' W 081°42'0 0.0 040 / 101016.4 19.3 27.6
2017-Jun-21 20:00N 41°30' W 081°42'0 0.0 010 / 71016.8 18.8 27.2
2017-Jun-21 19:00N 41°30' W 081°42'1110.8 020 / 91016.8 19.3 25.4
2017-Jun-21 18:00N 41°36' W 081°54'1110.8 020 / 91016.4 18.5 23.5
2017-Jun-21 17:00N 41°42' W 082°06'9 9.0 010 / 11017.4 18.0 23.7
2017-Jun-21 16:00N 41°42' W 082°18'2210.8 100 / 31017.1 17.9 23.8
2017-Jun-21 14:00N 41°54' W 082°42'9 8.9 070 / 31017.1 17.4 25.7
2017-Jun-21 13:00N 41°54' W 082°54'9 8.9 020 / 81016.4 16.9 24.5
2017-Jun-21 12:00N 41°54' W 083°06'1212.0 010 / 61016.4 16.7 25.5
2017-Jun-21 11:00N 42°06' W 083°06'6 6.0 320 / 81015.7 15.4 23.1
2017-Jun-21 10:00N 42°12' W 083°06'7 7.5 300 / 71015.2 14.8 23.1
2017-Jun-21 09:00N 42°18' W 083°00'1110.7 280 / 61015.2 15.3 22.8
2017-Jun-21 08:00N 42°24' W 082°48'1110.7 290 / 111014.8 15.6 20.9
2017-Jun-21 07:00N 42°30' W 082°36'1312.8 300 / 91014.5 15.2 19.6
2017-Jun-21 06:00N 42°42' W 082°30'6 6.0 240 / 51014.7 13.3 20.0
2017-Jun-21 05:00N 42°48' W 082°30'1312.8 240 / 61014.3 13.7 20.1
2017-Jun-21 04:00N 43°00' W 082°24'1212.0 260 / 81014.0 14.6 20.2
2017-Jun-21 03:00N 43°12' W 082°24'7 7.4 260 / 141014.0 16.1 20.4
2017-Jun-21 02:00N 43°18' W 082°18'7 7.4 240 / 101013.7 16.7 20.3
2017-Jun-21 01:00N 43°24' W 082°12'1312.8 210 / 101013.0 16.3 19.7
2017-Jun-21 00:00N 43°36' W 082°06'1212.0 280 / 81013.0 16.5 19.0
2017-Jun-20 23:00N 43°48' W 082°06'7 7.4 290 / 171012.7 16.0 18.4
2017-Jun-20 22:00N 43°54' W 082°12'111 8.9 280 / 211012.3 15.8 17.9
2017-Jun-20 09:33N 45°38' W 083°07'0 9.6
2017-Jun-20 09:30N 45°38' W 083°08'5 9.6
2017-Jun-20 08:59N 45°40' W 083°14'5 9.5
2017-Jun-20 08:30N 45°43' W 083°19'5 9.4
2017-Jun-20 08:00N 45°45' W 083°25'5 9.4
2017-Jun-20 07:30N 45°48' W 083°30'5 9.3
2017-Jun-20 07:00N 45°50' W 083°36'2140.6
2017-Jun-20 07:00N 45°48' W 083°36'611.6 150 / 71008.9 12.2 16.4
2017-Jun-20 06:30N 45°51' W 083°43'5 9.4
2017-Jun-20 06:00N 45°51' W 083°50'3471.1
2017-Jun-20 06:00N 45°54' W 083°48'612.4 320 / 61008.9 12.2 16.7
2017-Jun-20 05:29N 45°52' W 083°57'5 9.5
2017-Jun-20 05:00N 45°53' W 084°03'33077.7
2017-Jun-20 05:00N 45°54' W 084°00'714.2 340 / 61009.3 12.1 17.4
2017-Jun-20 04:30N 45°53' W 084°10'4 9.0
2017-Jun-20 04:00N 45°57' W 084°14'3223.0
2017-Jun-20 04:00N 45°54' W 084°12'612.0 320 / 41009.9 11.4 18.0
2017-Jun-20 03:30N 45°59' W 084°17'1 2.8
2017-Jun-20 03:00N 46°00' W 084°18'110.7 320 / 61009.3 11.5 16.4
2017-Jun-20 02:52N 45°59' W 084°17'0 0.0
2017-Jun-20 02:30N 45°59' W 084°17'1 2.8
2017-Jun-20 02:00N 46°00' W 084°18'1 2.5 350 / 61008.9 13.1 16.9
2017-Jun-20 01:26N 45°59' W 084°17'1 3.3
2017-Jun-20 01:00N 46°00' W 084°18'115.8 350 / 81008.6 15.0 16.8
2017-Jun-20 00:54N 45°59' W 084°17'1 1.3
2017-Jun-20 00:29N 45°59' W 084°16'4 8.2
2017-Jun-20 00:00N 45°56' W 084°13'2114.0
2017-Jun-20 00:00N 45°54' W 084°12'3 6.3 330 / 161008.3 17.1 18.4
2017-Jun-19 23:31N 45°52' W 084°09'4 8.3
2017-Jun-19 23:00N 45°48' W 084°06'138.0 320 / 121008.3 15.1 16.8
2017-Jun-19 22:58N 45°47' W 084°05'8 9.3
2017-Jun-19 22:08N 45°41' W 083°59'1 8.4
2017-Jun-19 22:00N 45°42' W 084°00'369.6 040 / 61007.9 15.4 16.3
2017-Jun-19 21:57N 45°39' W 083°58'5 9.4
2017-Jun-19 21:27N 45°35' W 083°54'4 9.6
2017-Jun-19 21:00N 45°32' W 083°51'3301.1
2017-Jun-19 21:00N 45°30' W 083°54'510.4 020 / 101007.9 14.8 15.4
2017-Jun-19 20:30N 45°28' W 083°47'3 6.0
2017-Jun-19 20:00N 45°25' W 083°47'1210.7
2017-Jun-19 20:00N 45°24' W 083°48'1 2.1 010 / 61007.9 14.6 15.7
2017-Jun-19 19:30N 45°25' W 083°47'0 0.0
2017-Jun-19 19:00N 45°25' W 083°47'1148.6
2017-Jun-19 19:00N 45°24' W 083°48'1 2.0 320 / 101007.6 14.6 14.9
2017-Jun-19 18:31N 45°25' W 083°47'0 0.0
2017-Jun-19 18:00N 45°25' W 083°47'166.5
2017-Jun-19 18:00N 45°24' W 083°48'1 1.9 320 / 141007.6 15.9 14.6
2017-Jun-19 17:30N 45°25' W 083°47'0 0.0
2017-Jun-19 17:01N 45°25' W 083°47'155.3
2017-Jun-19 17:00N 45°24' W 083°48'1 2.0 330 / 141007.6 14.3 14.4
2017-Jun-19 16:30N 45°25' W 083°47'0 0.1
2017-Jun-19 16:00N 45°25' W 083°47'167.5
2017-Jun-19 16:00N 45°24' W 083°48'1 2.1 330 / 101007.2 14.3 14.4
2017-Jun-19 15:30N 45°25' W 083°47'0 0.0
2017-Jun-19 15:00N 45°25' W 083°47'1113.2
2017-Jun-19 15:00N 45°24' W 083°48'1 1.0 320 / 121006.6 19.2 14.3
2017-Jun-19 14:00N 45°25' W 083°47'1101.2
2017-Jun-19 14:00N 45°24' W 083°48'1 2.0 270 / 91006.9 19.1 14.6
2017-Jun-19 13:31N 45°25' W 083°47'0 0.0
2017-Jun-19 13:00N 45°25' W 083°47'166.2
2017-Jun-19 13:00N 45°24' W 083°48'1 2.0 280 / 81006.6 17.9 14.4
2017-Jun-19 12:30N 45°25' W 083°47'0 0.1
2017-Jun-19 12:00N 45°25' W 083°47'168.5
2017-Jun-19 12:00N 45°24' W 083°48'4 7.3 260 / 71006.6 16.8 14.1
2017-Jun-19 11:30N 45°26' W 083°43'5 9.3
2017-Jun-19 11:00N 45°25' W 083°37'162.9
2017-Jun-19 11:00N 45°24' W 083°36'4 8.4 260 / 91005.9 14.9 14.4
2017-Jun-19 10:29N 45°23' W 083°30'4 9.0
2017-Jun-19 10:00N 45°21' W 083°25'3259.3
2017-Jun-19 10:00N 45°24' W 083°24'1312.7 250 / 161004.9 15.1 15.2
2017-Jun-19 09:00N 45°12' W 083°18'1010.4 270 / 151004.2 14.4 16.2
2017-Jun-19 08:00N 45°06' W 083°06'6 6.0 290 / 161004.2 15.1 16.2
2017-Jun-19 07:00N 45°00' W 083°06'1212.0 260 / 141004.2 15.1 17.4
2017-Jun-19 06:00N 44°48' W 083°06'1312.7 260 / 121004.2 16.1 17.4
2017-Jun-19 05:00N 44°36' W 083°12'6 6.0 290 / 141004.2 16.5 16.8
2017-Jun-19 04:00N 44°30' W 083°12'1212.0 280 / 111004.2 17.4 16.5
2017-Jun-19 03:00N 44°18' W 083°12'1010.5 250 / 151004.5 17.2 17.7
2017-Jun-19 02:00N 44°12' W 083°00'9 8.6 250 / 221003.9 18.6 18.5
2017-Jun-19 01:00N 44°12' W 082°48'1312.8 250 / 211003.2 18.7 18.4
2017-Jun-19 00:00N 44°00' W 082°42'7 7.4 260 / 221002.2 20.6 16.8
2017-Jun-18 23:00N 43°54' W 082°36'7 7.4 260 / 251001.8 21.3 17.7
2017-Jun-18 22:00N 43°48' W 082°30'1212.0 260 / 261001.1 22.3 18.2
2017-Jun-18 21:00N 43°36' W 082°30'6 6.0 260 / 221000.8 23.5 19.0
2017-Jun-18 20:00N 43°30' W 082°30'1312.8 270 / 261000.1 24.9 20.6
2017-Jun-18 19:00N 43°18' W 082°24'1212.0 250 / 211000.5 25.6 21.3
2017-Jun-18 18:00N 43°06' W 082°24'6 6.0 240 / 131001.1 24.6 20.7
2017-Jun-18 17:00N 43°00' W 082°24'7 7.4 240 / 131002.2 26.2 18.7
2017-Jun-18 16:00N 42°54' W 082°30'6 6.0 210 / 101002.5 24.6 19.7
2017-Jun-18 15:00N 42°48' W 082°30'6 6.0 210 / 111002.5 24.7 19.4
2017-Jun-18 14:00N 42°42' W 082°30'7 7.4 220 / 141003.2 23.8 19.5
2017-Jun-18 13:00N 42°36' W 082°36'1110.7 200 / 151003.0 23.9 19.7
2017-Jun-18 12:00N 42°30' W 082°48'7 7.5 210 / 161003.0 26.5 22.4
2017-Jun-18 11:00N 42°24' W 082°54'1110.7 240 / 161003.3 29.7 23.9
2017-Jun-18 10:00N 42°18' W 083°06'0 0.0 240 / 141003.0 26.6 24.8
2017-Jun-18 09:00N 42°18' W 083°06'0 0.0 200 / 61003.0 27.3 25.2
2017-Jun-18 08:00N 42°18' W 083°06'0 0.0 200 / 61002.3 24.7 25.2
2017-Jun-18 07:00N 42°18' W 083°06'0 0.0 180 / 101002.6 24.3 25.3
2017-Jun-18 06:00N 42°18' W 083°06'0 0.0 200 / 111003.7 24.6 25.7
2017-Jun-18 05:00N 42°18' W 083°06'0 0.0 190 / 81005.0 24.3 28.8
2017-Jun-18 04:00N 42°18' W 083°06'0 0.0 230 / 101005.7 24.5 28.4
2017-Jun-18 03:00N 42°18' W 083°06'4 4.4 260 / 81006.0 27.3 27.6
2017-Jun-18 02:00N 42°18' W 083°00'1110.7 180 / 141005.7 28.2 24.8
2017-Jun-18 01:00N 42°24' W 082°48'7 7.5 210 / 241005.0 28.2 22.7
2017-Jun-18 00:00N 42°30' W 082°42'1110.7 210 / 221005.0 26.0 20.6
2017-Jun-17 23:00N 42°36' W 082°30'1212.0 210 / 151005.5 28.6 20.0
2017-Jun-17 22:00N 42°48' W 082°30'6 6.0 200 / 181005.5 27.6 19.9
2017-Jun-17 21:00N 42°54' W 082°30'1312.8 190 / 171004.9 27.5 20.0
2017-Jun-17 20:00N 43°06' W 082°24'6 6.0 190 / 191005.2 26.4 19.9
2017-Jun-17 19:00N 43°12' W 082°24'6 6.0 120 / 171006.2 20.4 20.3
2017-Jun-17 18:00N 43°18' W 082°24'1212.0 120 / 181006.6 18.6 19.8
2017-Jun-17 17:00N 43°30' W 082°24'6 6.0 120 / 151006.6 18.1 20.3
2017-Jun-17 16:00N 43°36' W 082°24'1212.0 160 / 101007.2 17.5 19.6
2017-Jun-17 15:00N 43°48' W 082°24'6 6.0 130 / 41007.9 18.4 18.2
2017-Jun-17 14:00N 43°54' W 082°24'1312.8 260 / 91008.9 17.5 17.6
2017-Jun-17 13:00N 44°06' W 082°30'7 7.4 280 / 111008.6 17.5 17.6
2017-Jun-17 12:00N 44°12' W 082°36'62 8.9 190 / 211006.9 17.5 17.8
2017-Jun-17 05:00N 45°12' W 083°00'1010.4 300 / 91006.9 16.0 15.4
2017-Jun-17 04:00N 45°18' W 083°12'8 8.4 290 / 81007.6 15.3 15.8
2017-Jun-17 03:00N 45°18' W 083°24'0 0.0 210 / 61007.6 18.3 10.6
2017-Jun-17 02:00N 45°18' W 083°24'0 0.0 200 / 121007.2 17.0 10.6
2017-Jun-17 01:00N 45°18' W 083°24'0 0.0 180 / 111007.2 18.3 10.9
2017-Jun-17 00:00N 45°18' W 083°24'0 0.0 200 / 81007.2 20.3 11.4
2017-Jun-16 23:00N 45°18' W 083°24'   180 / 131007.6 21.1 11.8

Dump ship's entire track history